»·PEaware :: N41585 KLAR-KRKS

N41585 :: KLAR-KRKS

FLIGHT INFORMATION

Flight Status: Arrived
Operator: Privately registered:
United States
More flights under this callsign
Pilot: Sonny B. (6473)
Aircraft: PIPER PA-28R-201 ARROW
(P28R)
More flights by this aircraft type
Origin: KLAR Laramie Regl
United States
Destination: KRKS Rock Springs-Sweetwater
United States
More flights between these airports :: More routes between these airports
Route: LAR1 LAR V4 OCS
File this flight plan on PilotEdge
Remarks:
Altitude:
(Current/Filed)
14,000ft
Speed:
(Current/Filed)
150kts
Departed: 17-Sep-17 06:05 PM
Arrived: 17-Sep-17 07:14 PM
Distance/Time
Traveled:
153nm/1:08
Distance/Time
To Go:
Arrived

Flight Plot

Page will automatically refresh every two minutes.

Flight plan parsing failed; only flown route is shown


Map Options




Map Legend


Flown Route
Filed Route
Departure Airport
Arrival Airport
Navaid (VOR, NDB)
Fix

Horizontal Profiles

Position Reports

Time Latitude Longitude Heading Altitude Ground
Speed
17-Sep-17 17:29 41.319840 -105.669627 271 7286ft 0kts
17-Sep-17 17:30 41.319840 -105.669627 271 7286ft 0kts
17-Sep-17 17:31 41.319840 -105.669627 271 7286ft 0kts
17-Sep-17 17:32 41.319840 -105.669627 271 7286ft 0kts
17-Sep-17 17:33 41.319840 -105.669627 271 7286ft 0kts
17-Sep-17 17:34 41.319840 -105.669627 271 7286ft 0kts
17-Sep-17 17:35 41.319840 -105.669627 271 7286ft 0kts
17-Sep-17 17:36 41.319840 -105.669627 271 7286ft 0kts
17-Sep-17 17:37 41.319840 -105.669627 271 7286ft 0kts
17-Sep-17 17:38 41.319840 -105.669627 271 7286ft 0kts
17-Sep-17 17:39 41.319840 -105.669627 271 7286ft 0kts
17-Sep-17 17:40 41.319840 -105.669627 271 7286ft 0kts
17-Sep-17 17:41 41.319840 -105.669627 271 7286ft 0kts
17-Sep-17 17:42 41.319840 -105.669627 271 7286ft 0kts
17-Sep-17 17:43 41.319840 -105.669627 271 7286ft 0kts
17-Sep-17 17:44 41.319840 -105.669627 271 7286ft 0kts
17-Sep-17 17:45 41.319840 -105.669627 271 7286ft 0kts
17-Sep-17 17:46 41.319840 -105.669627 271 7286ft 0kts
17-Sep-17 17:47 41.319840 -105.669627 271 7286ft 0kts
17-Sep-17 17:48 41.319840 -105.669627 271 7286ft 0kts
17-Sep-17 17:49 41.319840 -105.669627 271 7286ft 0kts
17-Sep-17 17:50 41.319840 -105.669627 271 7286ft 0kts
17-Sep-17 17:51 41.319840 -105.669627 271 7286ft 0kts
17-Sep-17 17:52 41.319840 -105.669627 271 7286ft 0kts
17-Sep-17 17:53 41.319840 -105.669627 271 7286ft 0kts
17-Sep-17 17:54 41.319840 -105.669627 271 7286ft 0kts
17-Sep-17 17:55 41.319840 -105.669627 271 7286ft 0kts
17-Sep-17 17:56 41.319840 -105.669627 271 7286ft 0kts
17-Sep-17 17:57 41.319840 -105.669627 271 7286ft 0kts
17-Sep-17 17:58 41.319840 -105.669627 271 7286ft 0kts
17-Sep-17 17:59 41.319781 -105.669751 204 7286ft 5kts
17-Sep-17 18:00 41.317341 -105.669848 182 7286ft 13kts
17-Sep-17 18:01 41.315226 -105.672543 213 7286ft 11kts
17-Sep-17 18:02 41.311980 -105.668632 134 7286ft 30kts
17-Sep-17 18:03 41.308253 -105.664261 225 7286ft 0kts
17-Sep-17 18:04 41.308253 -105.664261 225 7286ft 0kts
17-Sep-17 18:05 41.308253 -105.664261 225 7286ft 0kts
17-Sep-17 18:06 41.308253 -105.664261 225 7286ft 0kts
17-Sep-17 18:07 41.308253 -105.664261 225 7286ft 0kts
17-Sep-17 18:08 41.307921 -105.665160 291 7286ft 8kts
17-Sep-17 18:09 41.321851 -105.683924 313 7621ft 98kts
17-Sep-17 18:10 41.336225 -105.714059 286 8539ft 97kts
17-Sep-17 18:11 41.350303 -105.744611 318 9367ft 102kts
17-Sep-17 18:12 41.365431 -105.772263 237 10123ft 108kts
17-Sep-17 18:13 41.339997 -105.764121 115 10867ft 111kts
17-Sep-17 18:14 41.337510 -105.725196 89 11638ft 108kts
17-Sep-17 18:15 41.353755 -105.707468 311 12267ft 114kts
17-Sep-17 18:16 41.372899 -105.737569 303 13011ft 108kts
17-Sep-17 18:17 41.356930 -105.740172 126 13596ft 110kts
17-Sep-17 18:18 41.336624 -105.708604 151 14016ft 128kts
17-Sep-17 18:19 41.324722 -105.740893 304 14015ft 153kts
17-Sep-17 18:20 41.345654 -105.780488 305 14012ft 160kts
17-Sep-17 18:21 41.363361 -105.834795 282 14012ft 162kts
17-Sep-17 18:22 41.377872 -105.902582 287 14011ft 163kts
17-Sep-17 18:23 41.391424 -105.960143 287 14011ft 163kts
17-Sep-17 18:24 41.402792 -106.008373 287 14011ft 163kts
17-Sep-17 18:25 41.416387 -106.065997 287 14011ft 163kts
17-Sep-17 18:26 41.429957 -106.123704 286 14011ft 163kts
17-Sep-17 18:27 41.443216 -106.181611 286 14011ft 163kts
17-Sep-17 18:28 41.458724 -106.249291 286 14011ft 163kts
17-Sep-17 18:29 41.472024 -106.307198 287 14011ft 163kts
17-Sep-17 18:30 41.483160 -106.355570 287 14011ft 163kts
17-Sep-17 18:31 41.496487 -106.413337 287 14011ft 163kts
17-Sep-17 18:32 41.509875 -106.471289 287 14011ft 163kts
17-Sep-17 18:33 41.523305 -106.529319 287 14011ft 163kts
17-Sep-17 18:34 41.536714 -106.587188 287 14011ft 163kts
17-Sep-17 18:35 41.550136 -106.645058 287 14011ft 163kts
17-Sep-17 18:36 41.563590 -106.702948 287 14011ft 163kts
17-Sep-17 18:37 41.577103 -106.760964 287 14011ft 163kts
17-Sep-17 18:38 41.590656 -106.819038 287 14011ft 163kts
17-Sep-17 18:39 41.604189 -106.876974 287 14011ft 163kts
17-Sep-17 18:40 41.617733 -106.934914 287 14011ft 163kts
17-Sep-17 18:41 41.631217 -106.992941 285 14011ft 163kts
17-Sep-17 18:42 41.643236 -107.051612 285 14011ft 163kts
17-Sep-17 18:43 41.655247 -107.110266 285 14011ft 163kts
17-Sep-17 18:44 41.667267 -107.168834 285 14011ft 163kts
17-Sep-17 18:45 41.679318 -107.227416 285 14011ft 163kts
17-Sep-17 18:46 41.691561 -107.286022 286 14011ft 163kts
17-Sep-17 18:47 41.704108 -107.344393 286 14011ft 163kts
17-Sep-17 18:48 41.716732 -107.403016 286 14011ft 163kts
17-Sep-17 18:49 41.729343 -107.461449 286 14011ft 163kts
17-Sep-17 18:50 41.741991 -107.519911 286 14011ft 163kts
17-Sep-17 18:51 41.754271 -107.578462 274 13997ft 164kts
17-Sep-17 18:52 41.746762 -107.638412 260 14011ft 163kts
17-Sep-17 18:53 41.740160 -107.698577 262 14011ft 163kts
17-Sep-17 18:54 41.733692 -107.758882 262 14011ft 163kts
17-Sep-17 18:55 41.727259 -107.819087 262 14011ft 163kts
17-Sep-17 18:56 41.720829 -107.879311 262 14011ft 163kts
17-Sep-17 18:57 41.714406 -107.939641 262 14011ft 163kts
17-Sep-17 18:58 41.705835 -107.999329 255 14011ft 163kts
17-Sep-17 18:59 41.694519 -108.058131 256 14011ft 163kts
17-Sep-17 19:00 41.683206 -108.117058 255 14011ft 163kts
17-Sep-17 19:01 41.671941 -108.175873 255 14011ft 163kts
17-Sep-17 19:02 41.661750 -108.228137 254 14011ft 163kts
17-Sep-17 19:03 41.649688 -108.286635 254 14011ft 163kts
17-Sep-17 19:04 41.637485 -108.345177 254 14011ft 163kts
17-Sep-17 19:05 41.625010 -108.403758 254 14011ft 163kts
17-Sep-17 19:06 41.612480 -108.461743 254 13772ft 163kts
17-Sep-17 19:07 41.601104 -108.519660 255 13281ft 160kts
17-Sep-17 19:08 41.591135 -108.577392 256 12756ft 159kts
17-Sep-17 19:09 41.578029 -108.633737 256 12230ft 158kts
17-Sep-17 19:10 41.567405 -108.689975 253 11645ft 157kts
17-Sep-17 19:11 41.554996 -108.745322 254 10940ft 154kts
17-Sep-17 19:12 41.546011 -108.800776 280 10147ft 157kts
17-Sep-17 19:13 41.555937 -108.853927 288 9452ft 144kts
17-Sep-17 19:14 41.567540 -108.905477 283 8803ft 144kts
17-Sep-17 19:15 41.575300 -108.956872 279 7970ft 140kts
17-Sep-17 19:16 41.583777 -109.004099 285 7350ft 120kts
17-Sep-17 19:17 41.591172 -109.045349 284 6834ft 101kts
17-Sep-17 19:18 41.595101 -109.067586 319 6761ft 11kts

Navigation Log

Ident Type
Flight plan parsing failed, navigation log unavailable